createdAt,value
2023-04-16T01:15:27.157Z,69.30
2023-04-16T01:18:29.484Z,68.91
2023-04-16T01:21:31.329Z,69.55
2023-04-16T01:24:34.076Z,69.23
2023-04-16T01:27:35.666Z,68.86
2023-04-16T01:30:37.388Z,69.46
2023-04-16T01:33:39.235Z,69.43
2023-04-16T01:36:40.945Z,68.93
2023-04-16T01:39:42.612Z,68.83
2023-04-16T01:42:44.704Z,68.68
2023-04-16T01:45:46.301Z,68.64
2023-04-16T01:48:47.914Z,68.51
2023-04-16T01:51:49.717Z,68.81
2023-04-16T01:54:51.338Z,68.90
2023-04-16T01:57:52.967Z,69.12
2023-04-16T02:00:54.609Z,68.87
2023-04-16T02:03:57.300Z,68.07
2023-04-16T02:06:59.056Z,68.10
2023-04-16T02:10:00.787Z,67.81
2023-04-16T02:13:02.307Z,68.50
2023-04-16T02:16:04.149Z,68.55
2023-04-16T02:19:05.731Z,68.74
2023-04-16T02:22:07.460Z,69.15
2023-04-16T02:25:09.276Z,69.18
2023-04-16T02:28:11.432Z,69.43
2023-04-16T02:31:13.041Z,69.50
2023-04-16T02:34:15.305Z,69.44
2023-04-16T02:37:16.915Z,69.44
2023-04-16T02:40:18.644Z,69.80
2023-04-16T02:43:20.215Z,69.51
2023-04-16T02:46:21.921Z,70.02
2023-04-16T02:49:23.509Z,69.33
2023-04-16T02:52:25.074Z,69.11
2023-04-16T02:55:26.716Z,69.46
2023-04-16T02:58:28.598Z,69.74
2023-04-16T03:01:30.358Z,70.04
2023-04-16T03:04:33.192Z,69.83
2023-04-16T03:07:34.883Z,70.11
2023-04-16T03:10:36.632Z,69.85
2023-04-16T03:13:38.428Z,70.04
2023-04-16T03:16:40.094Z,69.97
2023-04-16T03:19:41.751Z,69.91
2023-04-16T03:22:43.490Z,70.00
2023-04-16T03:25:45.096Z,69.58
2023-04-16T03:28:46.737Z,69.56
2023-04-16T03:31:48.452Z,70.07
2023-04-16T03:34:50.143Z,70.22
2023-04-16T03:37:51.893Z,70.02
2023-04-16T03:40:53.630Z,69.66
2023-04-16T03:43:55.269Z,69.48
2023-04-16T03:46:57.284Z,69.85
2023-04-16T03:49:58.981Z,69.83
2023-04-16T03:53:00.808Z,69.85
2023-04-16T03:56:03.122Z,70.01
2023-04-16T03:59:04.794Z,70.50
2023-04-16T04:02:06.807Z,70.25
2023-04-16T04:05:08.933Z,70.38
2023-04-16T04:08:10.685Z,70.64
2023-04-16T04:11:12.203Z,70.86
2023-04-16T04:14:13.815Z,70.75
2023-04-16T04:17:15.471Z,70.80
2023-04-16T04:20:17.219Z,70.90
2023-04-16T04:23:18.800Z,70.87
2023-04-16T04:26:20.522Z,71.18
2023-04-16T04:29:22.222Z,70.71
2023-04-16T04:32:23.878Z,70.97
2023-04-16T04:35:25.522Z,71.62
2023-04-16T04:38:27.300Z,71.31
2023-04-16T04:41:29.174Z,71.34
2023-04-16T04:44:30.856Z,71.60
2023-04-16T04:47:32.547Z,71.71
2023-04-16T04:50:34.236Z,71.88
2023-04-16T04:53:35.909Z,71.96
2023-04-16T04:56:37.597Z,71.75
2023-04-16T04:59:39.141Z,71.88
2023-04-16T05:02:41.076Z,71.61
2023-04-16T05:05:42.776Z,71.50
2023-04-16T05:08:44.433Z,71.78
2023-04-16T05:11:46.071Z,71.93
2023-04-16T05:14:47.669Z,72.40
2023-04-16T05:17:49.409Z,72.67
2023-04-16T05:20:51.082Z,72.14
2023-04-16T05:23:52.841Z,72.18
2023-04-16T05:26:54.327Z,71.42
2023-04-16T05:29:55.988Z,71.17
2023-04-16T05:32:57.716Z,71.06
2023-04-16T05:35:59.735Z,70.83
2023-04-16T05:39:01.389Z,70.67
2023-04-16T05:42:03.069Z,70.60
2023-04-16T05:45:05.460Z,70.59
2023-04-16T05:48:10.390Z,70.35
2023-04-16T05:51:12.143Z,70.13
2023-04-16T05:54:13.901Z,69.77
2023-04-16T05:57:15.471Z,69.46
2023-04-16T06:00:17.319Z,69.20
2023-04-16T06:03:19.019Z,69.08
2023-04-16T06:06:20.724Z,68.70
2023-04-16T06:09:22.438Z,68.91
2023-04-16T06:12:24.138Z,69.13
2023-04-16T06:15:25.765Z,69.54
2023-04-16T06:18:27.391Z,68.30
2023-04-16T06:21:29.193Z,67.61
2023-04-16T06:24:30.916Z,67.19
2023-04-16T06:27:32.569Z,67.44
2023-04-16T06:30:34.492Z,67.08
2023-04-16T06:33:36.135Z,66.09
2023-04-16T06:36:37.858Z,66.04
2023-04-16T06:39:39.504Z,65.88
2023-04-16T06:42:41.491Z,65.36
2023-04-16T06:45:44.615Z,64.14
2023-04-16T06:48:46.369Z,65.07
2023-04-16T06:51:48.014Z,64.97
2023-04-16T06:54:49.718Z,65.18
2023-04-16T06:57:51.328Z,64.69
2023-04-16T07:00:53.060Z,64.82
2023-04-16T07:03:55.141Z,63.98
2023-04-16T07:06:56.997Z,63.38
2023-04-16T07:09:59.284Z,61.98
2023-04-16T07:13:01.367Z,61.32
2023-04-16T07:16:03.136Z,61.72
2023-04-16T07:19:04.793Z,61.39
2023-04-16T07:22:06.657Z,60.29
2023-04-16T07:25:08.815Z,60.58
2023-04-16T07:28:10.534Z,60.73
2023-04-16T07:31:12.284Z,61.68
2023-04-16T07:34:14.050Z,61.79
2023-04-16T07:37:15.728Z,60.54
2023-04-16T07:40:17.548Z,58.47
2023-04-16T07:43:19.243Z,58.72
2023-04-16T07:46:21.177Z,59.79
2023-04-16T07:49:22.830Z,59.58
2023-04-16T07:52:24.527Z,55.80
2023-04-16T07:55:26.325Z,57.85
2023-04-16T07:58:27.930Z,58.30
2023-04-16T08:01:29.700Z,58.30
2023-04-16T08:04:31.677Z,58.38
2023-04-16T08:07:34.759Z,58.70
2023-04-16T08:10:36.666Z,56.14
2023-04-16T08:13:45.058Z,54.41
2023-04-16T08:16:46.852Z,55.96
2023-04-16T08:19:48.587Z,53.92
2023-04-16T08:22:50.236Z,55.01
2023-04-16T08:25:52.988Z,56.04
2023-04-16T08:28:54.958Z,53.53
2023-04-16T08:31:56.815Z,53.01
2023-04-16T08:34:58.564Z,52.37
2023-04-16T08:38:02.177Z,53.05
2023-04-16T08:41:06.758Z,54.02
2023-04-16T08:44:09.744Z,52.49
2023-04-16T08:47:12.764Z,52.31
2023-04-16T08:50:15.727Z,51.56
2023-04-16T08:53:19.004Z,53.41
2023-04-16T08:56:23.759Z,53.38
2023-04-16T08:59:26.557Z,52.11
2023-04-16T09:02:28.624Z,49.47
2023-04-16T09:05:31.073Z,50.59
2023-04-16T09:08:32.890Z,49.33
2023-04-16T09:11:34.583Z,47.40
2023-04-16T09:14:36.470Z,49.05
2023-04-16T09:17:38.802Z,49.19
2023-04-16T09:20:40.431Z,50.03
2023-04-16T09:23:42.202Z,51.34
2023-04-16T09:26:43.865Z,50.86
2023-04-16T09:29:45.495Z,47.93
2023-04-16T09:32:47.539Z,49.30
2023-04-16T09:35:51.887Z,50.05
2023-04-16T09:38:56.239Z,50.39
2023-04-16T09:41:59.182Z,46.99
2023-04-16T09:45:03.318Z,46.93
2023-04-16T09:48:06.902Z,46.17
2023-04-16T09:51:08.658Z,45.92
2023-04-16T09:54:10.669Z,47.18
2023-04-16T09:57:12.506Z,46.63
2023-04-16T10:00:18.810Z,47.75
2023-04-16T10:03:32.547Z,48.72
2023-04-16T10:06:34.457Z,49.50
2023-04-16T10:09:39.667Z,49.06
2023-04-16T10:12:41.404Z,49.23
2023-04-16T10:15:43.460Z,49.61
2023-04-16T10:18:46.503Z,49.91
2023-04-16T10:21:48.390Z,49.54
2023-04-16T10:24:50.324Z,47.99
2023-04-16T10:27:52.250Z,44.16
2023-04-16T10:30:55.267Z,43.06
2023-04-16T10:33:58.323Z,45.13
2023-04-16T10:37:00.173Z,45.84
2023-04-16T10:40:01.782Z,46.23
2023-04-16T10:43:03.733Z,46.50
2023-04-16T10:46:26.362Z,46.75
2023-04-16T10:49:28.045Z,46.14
2023-04-16T10:52:29.726Z,44.18
2023-04-16T10:55:31.427Z,42.60
2023-04-16T10:58:35.826Z,43.16
2023-04-16T11:01:58.845Z,42.67
2023-04-16T11:05:01.849Z,39.95
2023-04-16T11:08:14.147Z,41.71
2023-04-16T11:11:15.802Z,42.38
2023-04-16T11:14:17.635Z,41.78
2023-04-16T11:17:20.530Z,43.38
2023-04-16T11:20:24.227Z,43.93
2023-04-16T11:23:26.038Z,43.43
2023-04-16T11:26:28.954Z,43.37
2023-04-16T11:29:30.687Z,42.68
2023-04-16T11:32:33.294Z,42.69
2023-04-16T11:35:35.203Z,42.20
2023-04-16T11:38:37.910Z,42.32
2023-04-16T11:41:43.846Z,40.84
2023-04-16T11:44:45.480Z,41.52
2023-04-16T11:47:49.071Z,41.10
2023-04-16T11:50:57.904Z,40.89
2023-04-16T11:53:59.518Z,41.59
2023-04-16T11:57:01.371Z,41.93
2023-04-16T12:00:04.961Z,41.85
2023-04-16T12:03:07.695Z,42.45
2023-04-16T12:06:10.120Z,43.80
2023-04-16T12:09:25.390Z,43.73
2023-04-16T12:12:28.453Z,43.70
2023-04-16T12:15:53.426Z,43.80
2023-04-16T12:19:02.323Z,43.42
2023-04-16T12:22:03.976Z,43.17
2023-04-16T12:25:06.560Z,43.04
2023-04-16T12:28:08.155Z,43.50
2023-04-16T12:31:09.878Z,41.46
2023-04-16T12:34:11.912Z,42.27
2023-04-16T12:37:13.550Z,42.53
2023-04-16T12:40:16.228Z,42.39
2023-04-16T12:43:17.938Z,42.54
2023-04-16T12:46:19.626Z,42.67
2023-04-16T12:49:21.320Z,42.40
2023-04-16T12:52:23.849Z,42.57
2023-04-16T12:55:26.125Z,43.02
2023-04-16T12:58:27.826Z,43.41
2023-04-16T13:01:29.777Z,42.78
2023-04-16T13:04:31.553Z,42.85
2023-04-16T13:07:33.358Z,42.30
2023-04-16T13:10:35.483Z,41.73
2023-04-16T13:13:37.335Z,42.39
2023-04-16T13:16:39.063Z,42.23
2023-04-16T13:19:40.718Z,40.92
2023-04-16T13:22:42.449Z,40.78
2023-04-16T13:25:44.076Z,41.30
2023-04-16T13:28:45.745Z,40.98
2023-04-16T13:31:47.582Z,39.98
2023-04-16T13:34:49.814Z,40.27
2023-04-16T13:37:51.478Z,40.23
2023-04-16T13:40:53.181Z,38.95
2023-04-16T13:43:54.889Z,39.59
2023-04-16T13:46:56.741Z,39.62
2023-04-16T13:49:58.558Z,39.31
2023-04-16T13:53:00.234Z,38.38
2023-04-16T13:56:02.037Z,38.62
2023-04-16T13:59:03.755Z,39.23
2023-04-16T14:02:05.706Z,39.22
2023-04-16T14:05:07.705Z,38.98
2023-04-16T14:08:09.317Z,38.74
2023-04-16T14:11:11.664Z,39.00
2023-04-16T14:14:13.366Z,39.32
2023-04-16T14:17:15.056Z,39.54
2023-04-16T14:20:16.941Z,39.53
2023-04-16T14:23:18.632Z,39.39
2023-04-16T14:26:20.545Z,39.53
2023-04-16T14:29:22.311Z,38.97
2023-04-16T14:32:24.049Z,39.10
2023-04-16T14:35:25.810Z,39.08
2023-04-16T14:38:27.493Z,38.88
2023-04-16T14:41:29.088Z,38.98
2023-04-16T14:44:30.703Z,38.80
2023-04-16T14:47:36.027Z,38.73
2023-04-16T14:50:37.807Z,38.67
2023-04-16T14:53:39.666Z,38.85
2023-04-16T14:56:41.287Z,38.81
2023-04-16T14:59:43.040Z,38.46
2023-04-16T15:02:45.520Z,37.95
2023-04-16T15:05:47.592Z,38.25
2023-04-16T15:08:49.170Z,38.67
2023-04-16T15:11:50.784Z,38.43
2023-04-16T15:14:52.595Z,38.35
2023-04-16T15:17:54.434Z,37.94
2023-04-16T15:20:56.075Z,38.00
2023-04-16T15:23:57.784Z,37.79
2023-04-16T15:26:59.493Z,37.78
2023-04-16T15:30:01.191Z,38.10
2023-04-16T15:33:02.813Z,37.53
2023-04-16T15:36:04.724Z,37.91
2023-04-16T15:39:06.367Z,38.79
2023-04-16T15:42:08.336Z,39.36
2023-04-16T15:45:10.196Z,39.96
2023-04-16T15:48:12.020Z,40.34
2023-04-16T15:51:13.718Z,40.49
2023-04-16T15:54:15.499Z,40.93
2023-04-16T15:57:17.193Z,41.26
2023-04-16T16:00:19.233Z,41.60
2023-04-16T16:03:21.064Z,41.88
2023-04-16T16:06:22.950Z,42.30
2023-04-16T16:09:24.972Z,41.90
2023-04-16T16:12:26.726Z,42.01
2023-04-16T16:15:28.381Z,43.00
2023-04-16T16:18:30.030Z,43.66
2023-04-16T16:21:31.699Z,43.94
2023-04-16T16:24:33.585Z,44.28
2023-04-16T16:27:35.200Z,44.60
2023-04-16T16:30:36.840Z,44.93
2023-04-16T16:33:40.476Z,45.30
2023-04-16T16:36:42.486Z,45.76
2023-04-16T16:39:44.243Z,45.78
2023-04-16T16:42:45.893Z,45.70
2023-04-16T16:45:47.596Z,46.40
2023-04-16T16:48:49.238Z,46.91
2023-04-16T16:51:50.862Z,47.14
2023-04-16T16:54:55.360Z,47.39
2023-04-16T16:57:57.019Z,47.64
2023-04-16T17:00:58.893Z,48.03
2023-04-16T17:04:00.744Z,48.38
2023-04-16T17:07:02.564Z,48.94
2023-04-16T17:10:08.192Z,49.20
2023-04-16T17:13:09.753Z,49.35
2023-04-16T17:16:11.420Z,49.46
2023-04-16T17:19:13.166Z,49.61
2023-04-16T17:22:15.090Z,49.70
2023-04-16T17:25:16.786Z,49.81
2023-04-16T17:28:18.450Z,50.09
2023-04-16T17:31:20.229Z,50.26
2023-04-16T17:34:22.475Z,50.46
2023-04-16T17:37:24.157Z,50.80
2023-04-16T17:40:25.920Z,50.92
2023-04-16T17:43:27.529Z,51.10
2023-04-16T17:46:29.198Z,51.32
2023-04-16T17:49:31.161Z,51.49
2023-04-16T17:52:32.952Z,51.68
2023-04-16T17:55:34.596Z,52.04
2023-04-16T17:58:36.694Z,52.11
2023-04-16T18:01:38.399Z,52.43
2023-04-16T18:04:40.303Z,52.64
2023-04-16T18:07:42.196Z,52.78
2023-04-16T18:10:43.812Z,53.01
2023-04-16T18:13:45.416Z,53.02
2023-04-16T18:16:48.048Z,53.19
2023-04-16T18:19:49.656Z,53.37
2023-04-16T18:22:51.356Z,53.49
2023-04-16T18:25:53.127Z,53.45
2023-04-16T18:28:55.735Z,53.54
2023-04-16T18:31:57.577Z,54.01
2023-04-16T18:34:59.717Z,54.39
2023-04-16T18:38:02.491Z,54.61
2023-04-16T18:41:04.191Z,54.86
2023-04-16T18:44:05.946Z,54.56
2023-04-16T18:47:07.698Z,54.46
2023-04-16T18:50:09.596Z,55.10
2023-04-16T18:53:11.314Z,55.50
2023-04-16T18:56:13.148Z,56.16
2023-04-16T18:59:14.867Z,55.97
2023-04-16T19:02:16.616Z,55.96
2023-04-16T19:05:18.853Z,56.14
2023-04-16T19:08:20.672Z,56.06
2023-04-16T19:11:22.436Z,56.20
2023-04-16T19:14:24.191Z,56.49
2023-04-16T19:17:26.111Z,56.62
2023-04-16T19:20:27.848Z,56.80
2023-04-16T19:23:29.638Z,56.93
2023-04-16T19:26:31.286Z,56.66
2023-04-16T19:29:33.782Z,57.12
2023-04-16T19:32:35.601Z,57.96
2023-04-16T19:35:37.450Z,58.47
2023-04-16T19:38:39.193Z,58.72
2023-04-16T19:41:40.838Z,58.70
2023-04-16T19:44:42.493Z,58.76
2023-04-16T19:47:44.654Z,58.84
2023-04-16T19:50:46.556Z,59.33
2023-04-16T19:53:48.214Z,59.81
2023-04-16T19:56:50.332Z,59.81
2023-04-16T19:59:53.540Z,59.39
2023-04-16T20:02:56.834Z,59.41
2023-04-16T20:05:58.469Z,59.56
2023-04-16T20:09:00.248Z,60.81
2023-04-16T20:12:01.887Z,60.40
2023-04-16T20:15:03.696Z,60.46
2023-04-16T20:18:05.517Z,60.52
2023-04-16T20:21:07.429Z,60.87
2023-04-16T20:24:09.025Z,60.97
2023-04-16T20:27:10.550Z,61.08
2023-04-16T20:30:13.088Z,60.95
2023-04-16T20:33:14.808Z,61.21
2023-04-16T20:36:16.542Z,61.56
2023-04-16T20:39:18.143Z,61.54
2023-04-16T20:42:19.682Z,61.49
2023-04-16T20:45:21.370Z,61.68
2023-04-16T20:48:23.103Z,61.62
2023-04-16T20:51:24.726Z,61.68
2023-04-16T20:54:26.278Z,61.58
2023-04-16T20:57:27.963Z,61.27
2023-04-16T21:00:29.684Z,61.38
2023-04-16T21:03:31.427Z,61.84
2023-04-16T21:06:33.203Z,62.06
2023-04-16T21:09:34.901Z,62.44
2023-04-16T21:12:36.475Z,62.48
2023-04-16T21:15:39.074Z,62.55
2023-04-16T21:18:40.824Z,62.45
2023-04-16T21:21:42.337Z,62.56
2023-04-16T21:24:44.026Z,62.31
2023-04-16T21:27:45.722Z,62.47
2023-04-16T21:30:51.378Z,62.74
2023-04-16T21:33:55.161Z,62.64
2023-04-16T21:36:57.004Z,62.56
2023-04-16T21:39:58.738Z,62.28
2023-04-16T21:43:00.223Z,62.12
2023-04-16T21:46:01.871Z,62.77
2023-04-16T21:49:03.459Z,63.48
2023-04-16T21:52:05.373Z,63.95
2023-04-16T21:55:08.670Z,63.90
2023-04-16T21:58:10.368Z,63.99
2023-04-16T22:01:12.157Z,63.93
2023-04-16T22:04:13.983Z,63.85
2023-04-16T22:07:15.773Z,63.78
2023-04-16T22:10:17.514Z,63.94
2023-04-16T22:13:19.150Z,64.00
2023-04-16T22:16:20.717Z,64.00
2023-04-16T22:19:22.456Z,63.95
2023-04-16T22:22:24.182Z,64.09
2023-04-16T22:25:25.764Z,64.12
2023-04-16T22:28:27.361Z,64.34
2023-04-16T22:31:28.940Z,64.69
2023-04-16T22:34:30.626Z,64.84
2023-04-16T22:37:32.291Z,65.52
2023-04-16T22:40:33.881Z,65.75
2023-04-16T22:43:35.538Z,66.10
2023-04-16T22:46:37.205Z,66.12
2023-04-16T22:49:38.844Z,66.01
2023-04-16T22:52:40.456Z,65.87
2023-04-16T22:55:42.072Z,66.09
2023-04-16T22:58:43.575Z,65.89
2023-04-16T23:01:45.275Z,65.97
2023-04-16T23:04:46.840Z,65.96
2023-04-16T23:07:48.448Z,65.71
2023-04-16T23:10:50.035Z,65.79
2023-04-16T23:13:51.739Z,65.92
2023-04-16T23:16:53.267Z,65.38
2023-04-16T23:19:54.907Z,65.38
2023-04-16T23:22:56.597Z,65.70
2023-04-16T23:25:58.162Z,65.93
2023-04-16T23:28:59.827Z,66.13
2023-04-16T23:32:01.461Z,65.93
2023-04-16T23:35:03.215Z,65.67
2023-04-16T23:38:04.695Z,66.23
2023-04-16T23:41:07.672Z,66.51
2023-04-16T23:44:09.262Z,66.58
2023-04-16T23:47:10.961Z,66.58
2023-04-16T23:50:12.615Z,66.67
2023-04-16T23:53:14.329Z,66.91
2023-04-16T23:56:15.894Z,66.89
2023-04-16T23:59:17.665Z,66.96
